createdAt,value
2022-08-23T00:00:13.724Z,997.57
2022-08-23T00:01:15.010Z,997.56
2022-08-23T00:02:23.705Z,997.57
2022-08-23T00:03:16.383Z,997.56
2022-08-23T00:04:18.170Z,997.55
2022-08-23T00:05:14.571Z,997.52
2022-08-23T00:06:13.851Z,997.54
2022-08-23T00:07:15.601Z,997.55
2022-08-23T00:08:16.171Z,997.57
2022-08-23T00:09:13.567Z,997.57
2022-08-23T00:10:15.532Z,997.55
2022-08-23T00:11:13.737Z,997.60
2022-08-23T00:12:13.543Z,997.59
2022-08-23T00:13:13.506Z,997.56
2022-08-23T00:14:16.396Z,997.56
2022-08-23T00:15:15.978Z,997.54
2022-08-23T00:16:14.535Z,997.54
2022-08-23T00:17:33.587Z,997.55
2022-08-23T00:18:14.770Z,997.52
2022-08-23T00:19:13.680Z,997.51
2022-08-23T00:20:14.716Z,997.49
2022-08-23T00:21:13.703Z,997.50
2022-08-23T00:22:13.599Z,997.49
2022-08-23T00:23:14.116Z,997.53
2022-08-23T00:24:13.010Z,997.51
2022-08-23T00:25:14.630Z,997.49
2022-08-23T00:26:14.357Z,997.47
2022-08-23T00:27:15.144Z,997.50
2022-08-23T00:28:14.738Z,997.51
2022-08-23T00:29:13.126Z,997.52
2022-08-23T00:30:13.098Z,997.53
2022-08-23T00:31:12.949Z,997.53
2022-08-23T00:32:12.869Z,997.53
2022-08-23T00:33:15.802Z,997.54
2022-08-23T00:34:15.535Z,997.55
2022-08-23T00:35:26.660Z,997.54
2022-08-23T00:36:14.944Z,997.56
2022-08-23T00:37:15.919Z,997.51
2022-08-23T00:38:34.487Z,997.47
2022-08-23T00:39:13.185Z,997.46
2022-08-23T00:40:13.491Z,997.44
2022-08-23T00:41:13.594Z,997.44
2022-08-23T00:42:13.430Z,997.40
2022-08-23T00:43:13.230Z,997.41
2022-08-23T00:44:15.360Z,997.42
2022-08-23T00:45:13.200Z,997.42
2022-08-23T00:46:15.506Z,997.40
2022-08-23T00:47:15.242Z,997.39
2022-08-23T00:48:13.303Z,997.39
2022-08-23T00:49:13.744Z,997.38
2022-08-23T00:50:23.357Z,997.37
2022-08-23T00:51:14.747Z,997.35
2022-08-23T00:52:13.934Z,997.35
2022-08-23T00:53:12.920Z,997.38
2022-08-23T00:54:15.693Z,997.36
2022-08-23T00:55:13.642Z,997.33
2022-08-23T00:56:16.553Z,997.35
2022-08-23T00:57:13.428Z,997.34
2022-08-23T00:58:13.419Z,997.33
2022-08-23T00:59:16.627Z,997.31
2022-08-23T01:00:13.502Z,997.31
2022-08-23T01:01:13.387Z,997.29
2022-08-23T01:02:13.531Z,997.29
2022-08-23T01:03:13.872Z,997.32
2022-08-23T01:04:18.179Z,997.34
2022-08-23T01:05:14.861Z,997.35
2022-08-23T01:06:15.382Z,997.36
2022-08-23T01:07:13.393Z,997.35
2022-08-23T01:08:14.697Z,997.38
2022-08-23T01:09:15.303Z,997.36
2022-08-23T01:10:13.283Z,997.39
2022-08-23T01:11:12.818Z,997.37
2022-08-23T01:12:14.176Z,997.38
2022-08-23T01:13:14.113Z,997.41
2022-08-23T01:14:13.010Z,997.38
2022-08-23T01:15:14.600Z,997.39
2022-08-23T01:16:13.550Z,997.37
2022-08-23T01:17:14.059Z,997.40
2022-08-23T01:18:13.014Z,997.35
2022-08-23T01:19:12.798Z,997.30
2022-08-23T01:20:13.695Z,997.32
2022-08-23T01:21:14.529Z,997.32
2022-08-23T01:22:13.298Z,997.33
2022-08-23T01:23:13.403Z,997.31
2022-08-23T01:24:19.088Z,997.31
2022-08-23T01:25:14.032Z,997.33
2022-08-23T01:26:13.016Z,997.35
2022-08-23T01:27:12.958Z,997.32
2022-08-23T01:28:14.375Z,997.35
2022-08-23T01:29:13.218Z,997.39
2022-08-23T01:30:13.044Z,997.36
2022-08-23T01:31:13.115Z,997.37
2022-08-23T01:32:13.641Z,997.36
2022-08-23T01:33:16.009Z,997.38
2022-08-23T01:34:14.455Z,997.40
2022-08-23T01:35:15.946Z,997.37
2022-08-23T01:36:13.028Z,997.39
2022-08-23T01:37:14.700Z,997.38
2022-08-23T01:38:14.112Z,997.38
2022-08-23T01:39:13.402Z,997.39
2022-08-23T01:40:13.623Z,997.42
2022-08-23T01:41:14.427Z,997.39
2022-08-23T01:42:14.629Z,997.37
2022-08-23T01:43:15.247Z,997.39
2022-08-23T01:44:13.316Z,997.37
2022-08-23T01:45:13.141Z,997.41
2022-08-23T01:46:14.820Z,997.39
2022-08-23T01:47:17.113Z,997.38
2022-08-23T01:48:13.280Z,997.40
2022-08-23T01:49:13.091Z,997.38
2022-08-23T01:50:13.216Z,997.39
2022-08-23T01:51:13.277Z,997.40
2022-08-23T01:52:13.125Z,997.43
2022-08-23T01:53:13.246Z,997.43
2022-08-23T01:54:14.109Z,997.40
2022-08-23T01:55:14.469Z,997.40
2022-08-23T01:56:16.258Z,997.44
2022-08-23T01:57:13.369Z,997.46
2022-08-23T01:58:13.354Z,997.42
2022-08-23T01:59:13.274Z,997.39
2022-08-23T02:00:13.604Z,997.38
2022-08-23T02:01:13.705Z,997.40
2022-08-23T02:02:15.366Z,997.37
2022-08-23T02:03:13.369Z,997.40
2022-08-23T02:04:13.416Z,997.38
2022-08-23T02:05:13.392Z,997.39
2022-08-23T02:06:13.066Z,997.44
2022-08-23T02:07:12.905Z,997.39
2022-08-23T02:08:13.947Z,997.44
2022-08-23T02:09:17.919Z,997.41
2022-08-23T02:10:13.223Z,997.44
2022-08-23T02:11:13.207Z,997.45
2022-08-23T02:12:13.107Z,997.43
2022-08-23T02:13:14.784Z,997.45
2022-08-23T02:14:15.178Z,997.47
2022-08-23T02:15:15.018Z,997.45
2022-08-23T02:16:15.038Z,997.49
2022-08-23T02:17:13.055Z,997.49
2022-08-23T02:18:13.500Z,997.49
2022-08-23T02:19:12.955Z,997.50
2022-08-23T02:20:14.305Z,997.50
2022-08-23T02:21:13.330Z,997.52
2022-08-23T02:22:13.479Z,997.52
2022-08-23T02:23:13.326Z,997.52
2022-08-23T02:24:13.518Z,997.50
2022-08-23T02:25:13.386Z,997.52
2022-08-23T02:26:13.672Z,997.51
2022-08-23T02:27:13.598Z,997.52
2022-08-23T02:28:13.675Z,997.52
2022-08-23T02:29:13.650Z,997.53
2022-08-23T02:30:13.472Z,997.53
2022-08-23T02:31:13.405Z,997.51
2022-08-23T02:32:13.100Z,997.53
2022-08-23T02:33:13.367Z,997.56
2022-08-23T02:34:13.400Z,997.54
2022-08-23T02:35:13.344Z,997.52
2022-08-23T02:36:13.248Z,997.52
2022-08-23T02:37:15.876Z,997.49
2022-08-23T02:38:14.021Z,997.49
2022-08-23T02:39:13.075Z,997.50
2022-08-23T02:40:14.904Z,997.50
2022-08-23T02:41:12.761Z,997.52
2022-08-23T02:42:13.737Z,997.54
2022-08-23T02:43:13.653Z,997.49
2022-08-23T02:44:14.591Z,997.48
2022-08-23T02:45:15.177Z,997.50
2022-08-23T02:46:13.154Z,997.48
2022-08-23T02:47:13.306Z,997.47
2022-08-23T02:48:14.776Z,997.50
2022-08-23T02:49:13.965Z,997.53
2022-08-23T02:50:12.997Z,997.54
2022-08-23T02:51:14.725Z,997.51
2022-08-23T02:52:13.994Z,997.55
2022-08-23T02:53:14.568Z,997.52
2022-08-23T02:54:13.726Z,997.51
2022-08-23T02:55:13.775Z,997.55
2022-08-23T02:56:21.564Z,997.57
2022-08-23T02:57:13.183Z,997.54
2022-08-23T02:58:13.078Z,997.60
2022-08-23T02:59:13.081Z,997.60
2022-08-23T03:00:13.461Z,997.57
2022-08-23T03:01:14.447Z,997.59
2022-08-23T03:02:15.179Z,997.64
2022-08-23T03:03:13.207Z,997.60
2022-08-23T03:04:14.866Z,997.59
2022-08-23T03:05:13.684Z,997.59
2022-08-23T03:06:25.407Z,997.58
2022-08-23T03:07:13.620Z,997.55
2022-08-23T03:08:15.135Z,997.59
2022-08-23T03:09:13.677Z,997.55
2022-08-23T03:10:13.645Z,997.54
2022-08-23T03:11:15.053Z,997.50
2022-08-23T03:12:13.156Z,997.52
2022-08-23T03:13:13.038Z,997.53
2022-08-23T03:14:12.958Z,997.54
2022-08-23T03:15:12.815Z,997.58
2022-08-23T03:16:13.721Z,997.58
2022-08-23T03:17:13.593Z,997.55
2022-08-23T03:18:13.484Z,997.56
2022-08-23T03:19:13.432Z,997.54
2022-08-23T03:20:13.308Z,997.53
2022-08-23T03:21:13.210Z,997.55
2022-08-23T03:22:13.818Z,997.57
2022-08-23T03:23:14.900Z,997.54
2022-08-23T03:24:13.742Z,997.55
2022-08-23T03:25:13.721Z,997.57
2022-08-23T03:26:13.413Z,997.59
2022-08-23T03:27:13.260Z,997.58
2022-08-23T03:28:13.186Z,997.55
2022-08-23T03:29:12.990Z,997.58
2022-08-23T03:30:17.755Z,997.57
2022-08-23T03:31:15.657Z,997.59
2022-08-23T03:32:15.430Z,997.59
2022-08-23T03:33:13.484Z,997.58
2022-08-23T03:34:13.359Z,997.58
2022-08-23T03:35:15.204Z,997.62
2022-08-23T03:36:13.346Z,997.61
2022-08-23T03:37:13.213Z,997.61
2022-08-23T03:38:13.055Z,997.60
2022-08-23T03:39:14.437Z,997.60
2022-08-23T03:40:13.424Z,997.61
2022-08-23T03:41:15.315Z,997.62
2022-08-23T03:42:13.249Z,997.58
2022-08-23T03:43:13.214Z,997.59
2022-08-23T03:44:13.080Z,997.58
2022-08-23T03:45:12.906Z,997.61
2022-08-23T03:46:12.831Z,997.62
2022-08-23T03:47:13.589Z,997.65
2022-08-23T03:48:14.984Z,997.63
2022-08-23T03:49:13.367Z,997.63
2022-08-23T03:50:13.278Z,997.61
2022-08-23T03:51:13.367Z,997.63
2022-08-23T03:52:13.222Z,997.61
2022-08-23T03:53:13.052Z,997.62
2022-08-23T03:54:12.890Z,997.62
2022-08-23T03:55:12.786Z,997.63
2022-08-23T03:56:15.289Z,997.61
2022-08-23T03:57:13.216Z,997.60
2022-08-23T03:58:13.289Z,997.64
2022-08-23T03:59:13.157Z,997.62
2022-08-23T04:00:13.319Z,997.65
2022-08-23T04:01:13.351Z,997.68
2022-08-23T04:02:19.575Z,997.70
2022-08-23T04:03:15.530Z,997.70
2022-08-23T04:04:13.663Z,997.68
2022-08-23T04:05:13.639Z,997.71
2022-08-23T04:06:13.626Z,997.71
2022-08-23T04:07:13.835Z,997.73
2022-08-23T04:08:13.779Z,997.73
2022-08-23T04:09:13.839Z,997.75
2022-08-23T04:10:13.715Z,997.78
2022-08-23T04:11:14.592Z,997.74
2022-08-23T04:12:17.762Z,997.78
2022-08-23T04:13:12.986Z,997.79
2022-08-23T04:14:12.815Z,997.80
2022-08-23T04:15:13.850Z,997.81
2022-08-23T04:16:13.848Z,997.82
2022-08-23T04:17:13.836Z,997.83
2022-08-23T04:18:14.013Z,997.86
2022-08-23T04:19:12.882Z,997.86
2022-08-23T04:20:13.651Z,997.88
2022-08-23T04:21:13.728Z,997.90
2022-08-23T04:22:13.834Z,997.91
2022-08-23T04:23:13.982Z,997.93
2022-08-23T04:24:12.843Z,997.94
2022-08-23T04:25:34.531Z,997.95
2022-08-23T04:26:13.459Z,997.95
2022-08-23T04:27:13.436Z,997.95
2022-08-23T04:28:16.906Z,998.00
2022-08-23T04:29:12.837Z,997.98
2022-08-23T04:30:13.531Z,997.99
2022-08-23T04:31:13.533Z,997.99
2022-08-23T04:32:13.431Z,997.97
2022-08-23T04:33:17.714Z,997.97
2022-08-23T04:34:15.500Z,997.99
2022-08-23T04:35:13.083Z,997.99
2022-08-23T04:36:13.109Z,998.02
2022-08-23T04:37:13.396Z,998.00
2022-08-23T04:38:24.201Z,998.02
2022-08-23T04:39:13.158Z,998.02
2022-08-23T04:40:13.365Z,998.03
2022-08-23T04:41:13.256Z,998.06
2022-08-23T04:42:14.908Z,998.05
2022-08-23T04:43:13.026Z,998.07
2022-08-23T04:44:13.182Z,998.05
2022-08-23T04:45:13.002Z,998.04
2022-08-23T04:46:14.364Z,998.07
2022-08-23T04:47:13.429Z,998.04
2022-08-23T04:48:14.846Z,998.09
2022-08-23T04:49:13.924Z,998.09
2022-08-23T04:50:12.775Z,998.13
2022-08-23T04:51:13.715Z,998.12
2022-08-23T04:52:18.614Z,998.11
2022-08-23T04:53:13.879Z,998.17
2022-08-23T04:54:14.055Z,998.19
2022-08-23T04:55:13.707Z,998.17
2022-08-23T04:56:13.991Z,998.14
2022-08-23T04:57:12.848Z,998.16
2022-08-23T04:58:15.518Z,998.20
2022-08-23T04:59:15.395Z,998.23
2022-08-23T05:00:13.325Z,998.27
2022-08-23T05:01:13.372Z,998.26
2022-08-23T05:02:19.960Z,998.29
2022-08-23T05:03:12.797Z,998.29
2022-08-23T05:04:13.595Z,998.30
2022-08-23T05:05:13.507Z,998.30
2022-08-23T05:06:13.567Z,998.32
2022-08-23T05:07:13.775Z,998.31
2022-08-23T05:08:13.563Z,998.30
2022-08-23T05:09:16.050Z,998.33
2022-08-23T05:10:13.793Z,998.33
2022-08-23T05:11:13.755Z,998.33
2022-08-23T05:12:13.675Z,998.35
2022-08-23T05:13:13.784Z,998.32
2022-08-23T05:14:13.942Z,998.30
2022-08-23T05:15:12.942Z,998.30
2022-08-23T05:16:13.251Z,998.34
2022-08-23T05:17:13.208Z,998.31
2022-08-23T05:18:13.527Z,998.33
2022-08-23T05:19:13.440Z,998.38
2022-08-23T05:20:13.360Z,998.34
2022-08-23T05:21:13.232Z,998.37
2022-08-23T05:22:14.714Z,998.39
2022-08-23T05:23:13.612Z,998.39
2022-08-23T05:24:14.065Z,998.39
2022-08-23T05:25:13.192Z,998.41
2022-08-23T05:26:14.634Z,998.41
2022-08-23T05:27:13.862Z,998.39
2022-08-23T05:28:12.789Z,998.41
2022-08-23T05:29:13.847Z,998.47
2022-08-23T05:30:15.485Z,998.43
2022-08-23T05:31:13.822Z,998.44
2022-08-23T05:32:13.806Z,998.45
2022-08-23T05:33:13.672Z,998.46
2022-08-23T05:34:13.482Z,998.45
2022-08-23T05:35:13.601Z,998.44
2022-08-23T05:36:13.160Z,998.46
2022-08-23T05:37:14.767Z,998.45
2022-08-23T05:38:16.673Z,998.51
2022-08-23T05:39:13.064Z,998.43
2022-08-23T05:40:13.272Z,998.52
2022-08-23T05:41:13.568Z,998.54
2022-08-23T05:42:13.657Z,998.54
2022-08-23T05:43:13.667Z,998.54
2022-08-23T05:44:13.762Z,998.55
2022-08-23T05:45:14.937Z,998.58
2022-08-23T05:46:13.393Z,998.60
2022-08-23T05:47:13.603Z,998.62
2022-08-23T05:48:14.878Z,998.62
2022-08-23T05:49:13.451Z,998.62
2022-08-23T05:50:13.995Z,998.64
2022-08-23T05:51:13.376Z,998.66
2022-08-23T05:52:13.544Z,998.61
2022-08-23T05:53:15.722Z,998.68
2022-08-23T05:54:15.019Z,998.66
2022-08-23T05:55:15.026Z,998.68
2022-08-23T05:56:12.910Z,998.70
2022-08-23T05:57:13.460Z,998.70
2022-08-23T05:58:13.412Z,998.67
2022-08-23T05:59:13.379Z,998.69
2022-08-23T06:00:14.526Z,998.69
2022-08-23T06:01:14.359Z,998.72
2022-08-23T06:02:13.622Z,998.72
2022-08-23T06:03:13.587Z,998.76
2022-08-23T06:04:15.085Z,998.74
2022-08-23T06:05:12.941Z,998.74
2022-08-23T06:06:12.911Z,998.76
2022-08-23T06:07:14.288Z,998.77
2022-08-23T06:08:13.110Z,998.76
2022-08-23T06:09:13.006Z,998.77
2022-08-23T06:10:15.999Z,998.81
2022-08-23T06:11:15.735Z,998.80
2022-08-23T06:12:13.528Z,998.81
2022-08-23T06:13:15.758Z,998.85
2022-08-23T06:14:15.268Z,998.86
2022-08-23T06:15:13.448Z,998.85
2022-08-23T06:16:18.752Z,998.85
2022-08-23T06:17:16.275Z,998.86
2022-08-23T06:18:13.500Z,998.87
2022-08-23T06:19:13.309Z,998.85
2022-08-23T06:20:13.332Z,998.87
2022-08-23T06:21:13.391Z,998.85
2022-08-23T06:22:13.402Z,998.86
2022-08-23T06:23:15.156Z,998.87
2022-08-23T06:24:14.735Z,998.83
2022-08-23T06:25:13.673Z,998.87
2022-08-23T06:26:15.064Z,998.88
2022-08-23T06:27:15.243Z,998.93
2022-08-23T06:28:15.122Z,998.96
2022-08-23T06:29:13.108Z,998.94
2022-08-23T06:30:16.245Z,998.90
2022-08-23T06:31:17.684Z,998.92
2022-08-23T06:32:17.601Z,998.93
2022-08-23T06:33:16.668Z,998.96
2022-08-23T06:34:17.203Z,998.96
2022-08-23T06:35:37.594Z,998.92
2022-08-23T06:36:17.881Z,998.91
2022-08-23T06:37:13.664Z,998.98
2022-08-23T06:38:13.582Z,998.96
2022-08-23T06:39:13.548Z,998.93
2022-08-23T06:40:18.343Z,998.97
2022-08-23T06:41:13.510Z,998.99
2022-08-23T06:42:38.270Z,998.94
2022-08-23T06:43:13.520Z,998.98
2022-08-23T06:44:16.254Z,998.98
2022-08-23T06:45:15.010Z,999.01
2022-08-23T06:46:13.134Z,998.99
2022-08-23T06:47:17.297Z,998.99
2022-08-23T06:48:18.730Z,998.97
2022-08-23T06:49:16.935Z,998.97
2022-08-23T06:50:14.455Z,998.97
2022-08-23T06:51:14.900Z,998.94
2022-08-23T06:52:13.114Z,998.96
2022-08-23T06:53:13.251Z,999.01
2022-08-23T06:54:15.048Z,999.04
2022-08-23T06:55:13.885Z,999.06
2022-08-23T06:56:14.582Z,999.02
2022-08-23T06:57:15.149Z,999.00
2022-08-23T06:58:15.298Z,999.05
2022-08-23T06:59:13.209Z,999.04
2022-08-23T07:00:17.802Z,999.01
2022-08-23T07:01:34.976Z,999.03
2022-08-23T07:02:13.584Z,999.02
2022-08-23T07:03:17.628Z,998.99
2022-08-23T07:04:15.253Z,999.01
2022-08-23T07:05:13.464Z,999.01
2022-08-23T07:06:15.319Z,999.05
2022-08-23T07:07:14.997Z,999.03
2022-08-23T07:08:16.319Z,999.03
2022-08-23T07:09:17.228Z,999.05
2022-08-23T07:10:13.113Z,999.07
2022-08-23T07:11:16.267Z,999.08
2022-08-23T07:12:13.556Z,999.09
2022-08-23T07:13:18.389Z,999.11
2022-08-23T07:14:18.355Z,999.10
2022-08-23T07:15:14.892Z,999.09
2022-08-23T07:16:16.176Z,999.13
2022-08-23T07:17:13.144Z,999.11
2022-08-23T07:18:13.543Z,999.10
2022-08-23T07:19:18.932Z,999.15
2022-08-23T07:20:16.044Z,999.11
2022-08-23T07:21:16.436Z,999.15
2022-08-23T07:22:15.601Z,999.15
2022-08-23T07:23:18.590Z,999.15
2022-08-23T07:24:18.458Z,999.13
2022-08-23T07:25:15.060Z,999.17
2022-08-23T07:26:19.138Z,999.17
2022-08-23T07:27:16.202Z,999.19
2022-08-23T07:28:15.234Z,999.18
2022-08-23T07:29:17.856Z,999.19
2022-08-23T07:30:17.660Z,999.18
2022-08-23T07:31:16.250Z,999.21
2022-08-23T07:32:13.160Z,999.21
2022-08-23T07:33:13.217Z,999.21
2022-08-23T07:34:15.516Z,999.20
2022-08-23T07:35:16.579Z,999.24
2022-08-23T07:36:18.356Z,999.25
2022-08-23T07:37:15.385Z,999.32
2022-08-23T07:38:14.058Z,999.29
2022-08-23T07:39:16.308Z,999.35
2022-08-23T07:40:20.191Z,999.34
2022-08-23T07:41:16.386Z,999.37
2022-08-23T07:42:23.766Z,999.40
2022-08-23T07:43:18.653Z,999.42
2022-08-23T07:44:13.678Z,999.40
2022-08-23T07:45:16.049Z,999.43
2022-08-23T07:46:17.066Z,999.41
2022-08-23T07:47:18.351Z,999.44
2022-08-23T07:48:20.451Z,999.44
2022-08-23T07:49:19.287Z,999.44
2022-08-23T07:50:14.765Z,999.44
2022-08-23T07:51:16.791Z,999.42
2022-08-23T07:52:19.782Z,999.45
2022-08-23T07:53:13.591Z,999.46
2022-08-23T07:54:14.482Z,999.48
2022-08-23T07:55:16.541Z,999.48
2022-08-23T07:56:17.743Z,999.47
2022-08-23T07:57:14.504Z,999.51
2022-08-23T07:58:15.811Z,999.55
2022-08-23T07:59:15.220Z,999.50
2022-08-23T08:00:17.441Z,999.50
2022-08-23T08:01:15.465Z,999.49
2022-08-23T08:02:15.699Z,999.50
2022-08-23T08:03:16.895Z,999.48
2022-08-23T08:04:13.227Z,999.45
2022-08-23T08:05:21.469Z,999.47
2022-08-23T08:06:15.617Z,999.48
2022-08-23T08:07:20.394Z,999.48
2022-08-23T08:08:16.723Z,999.49
2022-08-23T08:09:19.401Z,999.46
2022-08-23T08:10:16.503Z,999.53
2022-08-23T08:11:17.930Z,999.51
2022-08-23T08:12:17.728Z,999.49
2022-08-23T08:13:17.955Z,999.52
2022-08-23T08:14:16.239Z,999.52
2022-08-23T08:15:16.030Z,999.50
2022-08-23T08:16:13.180Z,999.48
2022-08-23T08:17:13.584Z,999.51
2022-08-23T08:18:16.601Z,999.51
2022-08-23T08:19:19.271Z,999.55
2022-08-23T08:20:14.980Z,999.53
2022-08-23T08:21:14.782Z,999.56
2022-08-23T08:22:15.446Z,999.59
2022-08-23T08:23:16.528Z,999.58
2022-08-23T08:24:18.070Z,999.57
2022-08-23T08:25:18.588Z,999.59
2022-08-23T08:26:15.811Z,999.62
2022-08-23T08:27:18.132Z,999.60
2022-08-23T08:28:17.850Z,999.63
2022-08-23T08:29:17.843Z,999.61
2022-08-23T08:30:15.322Z,999.66
2022-08-23T08:31:14.956Z,999.67
2022-08-23T08:32:14.329Z,999.61
2022-08-23T08:33:18.314Z,999.60
2022-08-23T08:34:18.507Z,999.63
2022-08-23T08:35:16.585Z,999.61
2022-08-23T08:36:17.530Z,999.62
2022-08-23T08:37:18.512Z,999.66
2022-08-23T08:38:15.106Z,999.65
2022-08-23T08:39:15.069Z,999.64
2022-08-23T08:40:15.014Z,999.64
2022-08-23T08:41:14.102Z,999.63
2022-08-23T08:42:17.945Z,999.64
2022-08-23T08:43:15.103Z,999.67
2022-08-23T08:44:17.053Z,999.63
2022-08-23T08:45:16.155Z,999.68
2022-08-23T08:46:15.869Z,999.63
2022-08-23T08:47:18.372Z,999.65
2022-08-23T08:48:16.482Z,999.63
2022-08-23T08:49:19.092Z,999.62
2022-08-23T08:50:18.572Z,999.61
2022-08-23T08:51:16.699Z,999.63
2022-08-23T08:52:15.500Z,999.60
2022-08-23T08:53:21.358Z,999.66
2022-08-23T08:54:18.706Z,999.64
2022-08-23T08:55:16.540Z,999.66
2022-08-23T08:56:17.621Z,999.65
2022-08-23T08:57:16.776Z,999.72
2022-08-23T08:58:13.876Z,999.70
2022-08-23T08:59:16.062Z,999.66
2022-08-23T09:00:16.554Z,999.71
2022-08-23T09:01:15.238Z,999.69
2022-08-23T09:02:31.958Z,999.65
2022-08-23T09:03:16.319Z,999.68
2022-08-23T09:04:16.411Z,999.72
2022-08-23T09:05:17.217Z,999.75
2022-08-23T09:06:14.267Z,999.72
2022-08-23T09:07:19.578Z,999.68
2022-08-23T09:08:18.791Z,999.71
2022-08-23T09:09:19.380Z,999.68
2022-08-23T09:10:21.114Z,999.70
2022-08-23T09:11:14.790Z,999.71
2022-08-23T09:12:20.205Z,999.73
2022-08-23T09:13:17.779Z,999.71
2022-08-23T09:14:17.523Z,999.70
2022-08-23T09:15:15.869Z,999.72
2022-08-23T09:16:16.011Z,999.69
2022-08-23T09:17:17.114Z,999.70
2022-08-23T09:18:18.261Z,999.71
2022-08-23T09:19:17.797Z,999.69
2022-08-23T09:20:18.522Z,999.74
2022-08-23T09:21:18.167Z,999.73
2022-08-23T09:22:17.855Z,999.70
2022-08-23T09:23:17.236Z,999.67
2022-08-23T09:24:17.685Z,999.67
2022-08-23T09:25:16.968Z,999.71
2022-08-23T09:26:18.849Z,999.72
2022-08-23T09:27:15.950Z,999.73
2022-08-23T09:28:17.699Z,999.72
2022-08-23T09:29:17.502Z,999.73
2022-08-23T09:30:19.683Z,999.76
2022-08-23T09:31:20.460Z,999.74
2022-08-23T09:32:17.846Z,999.79
2022-08-23T09:33:18.395Z,999.83
2022-08-23T09:34:17.968Z,999.82
2022-08-23T09:35:17.641Z,999.81
2022-08-23T09:36:18.301Z,999.78
2022-08-23T09:37:19.042Z,999.80
2022-08-23T09:38:18.306Z,999.77
2022-08-23T09:39:16.634Z,999.81
2022-08-23T09:40:18.572Z,999.76
2022-08-23T09:41:20.015Z,999.81
2022-08-23T09:42:17.377Z,999.78
2022-08-23T09:43:16.549Z,999.79
2022-08-23T09:44:18.164Z,999.79
2022-08-23T09:45:18.214Z,999.83
2022-08-23T09:46:18.651Z,999.80
2022-08-23T09:47:20.166Z,999.83
2022-08-23T09:48:16.801Z,999.80
2022-08-23T09:49:19.053Z,999.81
2022-08-23T09:50:16.590Z,999.79
2022-08-23T09:51:19.920Z,999.76
2022-08-23T09:52:22.281Z,999.82
2022-08-23T09:53:18.300Z,999.78
2022-08-23T09:54:18.655Z,999.82
2022-08-23T09:55:19.063Z,999.79
2022-08-23T09:56:19.148Z,999.75
2022-08-23T09:57:14.293Z,999.73
2022-08-23T09:58:17.213Z,999.72
2022-08-23T09:59:17.307Z,999.72
2022-08-23T10:00:17.700Z,999.75
2022-08-23T10:01:19.215Z,999.73
2022-08-23T10:02:17.195Z,999.72
2022-08-23T10:03:17.175Z,999.69
2022-08-23T10:04:19.123Z,999.72
2022-08-23T10:05:17.847Z,999.74
2022-08-23T10:06:19.773Z,999.75
2022-08-23T10:07:18.968Z,999.68
2022-08-23T10:08:18.979Z,999.72
2022-08-23T10:09:18.291Z,999.68
2022-08-23T10:10:17.379Z,999.68
2022-08-23T10:11:16.537Z,999.66
2022-08-23T10:12:17.031Z,999.63
2022-08-23T10:13:20.775Z,999.67
2022-08-23T10:14:19.906Z,999.67
2022-08-23T10:15:19.477Z,999.66
2022-08-23T10:16:19.405Z,999.68
2022-08-23T10:17:18.143Z,999.69
2022-08-23T10:18:19.082Z,999.72
2022-08-23T10:19:19.183Z,999.70
2022-08-23T10:20:19.166Z,999.71
2022-08-23T10:21:20.969Z,999.65
2022-08-23T10:22:18.609Z,999.67
2022-08-23T10:23:18.230Z,999.73
2022-08-23T10:24:20.213Z,999.72
2022-08-23T10:25:19.278Z,999.73
2022-08-23T10:26:18.065Z,999.69
2022-08-23T10:27:16.519Z,999.71
2022-08-23T10:28:18.801Z,999.68
2022-08-23T10:29:18.671Z,999.66
2022-08-23T10:30:18.202Z,999.66
2022-08-23T10:31:17.885Z,999.66
2022-08-23T10:32:19.573Z,999.66
2022-08-23T10:33:18.827Z,999.61
2022-08-23T10:34:15.933Z,999.66
2022-08-23T10:35:20.539Z,999.67
2022-08-23T10:36:19.494Z,999.65
2022-08-23T10:37:19.794Z,999.65
2022-08-23T10:38:18.494Z,999.64
2022-08-23T10:39:20.846Z,999.61
2022-08-23T10:40:16.456Z,999.59
2022-08-23T10:41:18.286Z,999.56
2022-08-23T10:42:16.650Z,999.57
2022-08-23T10:43:18.716Z,999.60
2022-08-23T10:44:18.288Z,999.58
2022-08-23T10:45:17.823Z,999.56
2022-08-23T10:46:16.885Z,999.55
2022-08-23T10:47:19.048Z,999.61
2022-08-23T10:48:21.476Z,999.61
2022-08-23T10:49:18.788Z,999.57
2022-08-23T10:50:19.651Z,999.56
2022-08-23T10:51:23.060Z,999.61
2022-08-23T10:52:16.658Z,999.57
2022-08-23T10:53:22.640Z,999.55
2022-08-23T10:54:19.254Z,999.57
2022-08-23T10:55:19.826Z,999.52
2022-08-23T10:56:16.719Z,999.52
2022-08-23T10:57:18.966Z,999.49
2022-08-23T10:58:17.732Z,999.52
2022-08-23T10:59:19.680Z,999.46
2022-08-23T11:00:19.077Z,999.49
2022-08-23T11:01:18.204Z,999.51
2022-08-23T11:02:19.249Z,999.48
2022-08-23T11:03:18.992Z,999.50
2022-08-23T11:04:19.027Z,999.54
2022-08-23T11:05:20.567Z,999.51
2022-08-23T11:06:17.849Z,999.53
2022-08-23T11:07:18.596Z,999.48
2022-08-23T11:08:19.427Z,999.52
2022-08-23T11:09:18.012Z,999.50
2022-08-23T11:10:18.910Z,999.48
2022-08-23T11:11:20.191Z,999.44
2022-08-23T11:12:19.456Z,999.52
2022-08-23T11:13:19.281Z,999.47
2022-08-23T11:14:22.506Z,999.50
2022-08-23T11:15:19.466Z,999.48
2022-08-23T11:16:19.685Z,999.53
2022-08-23T11:17:20.314Z,999.50
2022-08-23T11:18:21.289Z,999.53
2022-08-23T11:19:18.037Z,999.51
2022-08-23T11:20:20.253Z,999.51
2022-08-23T11:21:18.769Z,999.49
2022-08-23T11:22:18.849Z,999.49
2022-08-23T11:23:18.645Z,999.50
2022-08-23T11:24:21.339Z,999.45
2022-08-23T11:25:20.109Z,999.47
2022-08-23T11:26:19.964Z,999.46
2022-08-23T11:27:19.969Z,999.43
2022-08-23T11:28:19.371Z,999.41
2022-08-23T11:29:21.824Z,999.38
2022-08-23T11:30:21.205Z,999.44
2022-08-23T11:31:21.082Z,999.41
2022-08-23T11:32:20.240Z,999.41
2022-08-23T11:33:19.122Z,999.44
2022-08-23T11:34:20.821Z,999.46
2022-08-23T11:35:20.679Z,999.49
2022-08-23T11:36:19.947Z,999.48
2022-08-23T11:37:20.504Z,999.45
2022-08-23T11:38:22.643Z,999.46
2022-08-23T11:39:25.335Z,999.38
2022-08-23T11:40:21.564Z,999.37
2022-08-23T11:41:19.593Z,999.37
2022-08-23T11:42:22.177Z,999.39
2022-08-23T11:43:18.893Z,999.40
2022-08-23T11:44:19.250Z,999.39
2022-08-23T11:45:21.633Z,999.44
2022-08-23T11:46:19.946Z,999.42
2022-08-23T11:47:21.391Z,999.46
2022-08-23T11:48:19.357Z,999.47
2022-08-23T11:49:19.935Z,999.43
2022-08-23T11:50:20.524Z,999.47
2022-08-23T11:51:20.342Z,999.44
2022-08-23T11:52:20.891Z,999.40
2022-08-23T11:53:20.571Z,999.45
2022-08-23T11:54:21.641Z,999.42
2022-08-23T11:55:20.891Z,999.35
2022-08-23T11:56:26.693Z,999.42
2022-08-23T11:57:24.911Z,999.37
2022-08-23T11:58:20.940Z,999.29
2022-08-23T11:59:20.405Z,999.31
2022-08-23T12:00:20.994Z,999.40
2022-08-23T12:01:20.534Z,999.36
2022-08-23T12:02:20.816Z,999.38
2022-08-23T12:03:21.621Z,999.33
2022-08-23T12:04:21.496Z,999.26
2022-08-23T12:05:20.988Z,999.29
2022-08-23T12:06:21.576Z,999.33
2022-08-23T12:07:20.434Z,999.35
2022-08-23T12:08:21.495Z,999.36
2022-08-23T12:09:21.016Z,999.30
2022-08-23T12:10:20.586Z,999.28
2022-08-23T12:11:20.492Z,999.29
2022-08-23T12:12:19.087Z,999.29
2022-08-23T12:13:14.602Z,999.33
2022-08-23T12:14:13.643Z,999.30
2022-08-23T12:15:13.823Z,999.35
2022-08-23T12:16:16.189Z,999.29
2022-08-23T12:17:13.361Z,999.25
2022-08-23T12:18:13.191Z,999.21
2022-08-23T12:19:13.784Z,999.21
2022-08-23T12:20:16.258Z,999.23
2022-08-23T12:21:13.419Z,999.17
2022-08-23T12:22:13.775Z,999.13
2022-08-23T12:23:14.107Z,999.15
2022-08-23T12:24:18.320Z,999.13
2022-08-23T12:25:13.208Z,999.17
2022-08-23T12:26:18.651Z,999.17
2022-08-23T12:27:13.817Z,999.08
2022-08-23T12:28:13.947Z,999.12